createdAt,value
2019-04-07T00:00:06.531Z,5.58
2019-04-07T00:02:34.848Z,4.78
2019-04-07T00:05:10.979Z,8.25
2019-04-07T00:07:29.738Z,9.58
2019-04-07T00:09:58.853Z,5.72
2019-04-07T00:12:25.399Z,6.37
2019-04-07T00:14:52.222Z,6.22
2019-04-07T00:17:19.226Z,4.95
2019-04-07T00:19:45.893Z,4.35
2019-04-07T00:22:12.727Z,4.53
2019-04-07T00:24:40.060Z,5.55
2019-04-07T00:27:06.916Z,4.70
2019-04-07T00:29:33.438Z,4.83
2019-04-07T00:32:00.158Z,4.28
2019-04-07T00:34:26.614Z,5.17
2019-04-07T00:36:53.592Z,5.17
2019-04-07T00:39:20.690Z,4.67
2019-04-07T00:41:47.523Z,4.87
2019-04-07T00:44:14.638Z,8.48
2019-04-07T00:46:41.201Z,7.22
2019-04-07T00:49:08.328Z,8.15
2019-04-07T00:51:37.535Z,10.05
2019-04-07T00:54:04.185Z,5.92
2019-04-07T00:56:31.196Z,5.97
2019-04-07T00:58:57.802Z,6.58
2019-04-07T01:01:24.547Z,5.90
2019-04-07T01:03:51.421Z,6.80
2019-04-07T01:06:17.832Z,5.80
2019-04-07T01:08:44.804Z,4.60
2019-04-07T01:11:11.522Z,6.30
2019-04-07T01:13:38.548Z,9.65
2019-04-07T01:16:05.175Z,6.20
2019-04-07T01:18:31.869Z,5.40
2019-04-07T01:20:58.344Z,6.78
2019-04-07T01:23:25.147Z,6.15
2019-04-07T01:25:52.250Z,5.55
2019-04-07T01:28:18.731Z,6.17
2019-04-07T01:30:45.080Z,7.85
2019-04-07T01:33:11.752Z,6.00
2019-04-07T01:35:46.173Z,7.70
2019-04-07T01:38:07.183Z,4.92
2019-04-07T01:40:33.791Z,8.03
2019-04-07T01:43:02.629Z,7.08
2019-04-07T01:45:34.265Z,5.83
2019-04-07T01:48:15.103Z,5.07
2019-04-07T01:50:45.108Z,7.78
2019-04-07T01:53:16.345Z,6.25
2019-04-07T01:55:45.478Z,6.22
2019-04-07T01:58:30.674Z,6.50
2019-04-07T02:01:21.962Z,6.97
2019-04-07T02:03:51.150Z,6.08
2019-04-07T02:06:19.871Z,7.05
2019-04-07T02:09:05.330Z,6.25
2019-04-07T02:11:37.613Z,5.28
2019-04-07T02:14:21.345Z,6.15
2019-04-07T02:16:52.692Z,6.72
2019-04-07T02:19:24.114Z,5.20
2019-04-07T02:22:05.841Z,7.12
2019-04-07T02:24:34.457Z,5.72
2019-04-07T02:27:18.193Z,6.90
2019-04-07T02:29:46.632Z,7.33
2019-04-07T02:32:24.548Z,4.90
2019-04-07T02:34:53.111Z,6.28
2019-04-07T02:37:22.726Z,7.00
2019-04-07T02:39:57.273Z,5.47
2019-04-07T02:42:25.658Z,6.53
2019-04-07T02:44:57.335Z,6.40
2019-04-07T02:47:28.763Z,5.33
2019-04-07T02:49:57.354Z,5.03
2019-04-07T02:52:34.499Z,4.85
2019-04-07T02:55:19.683Z,5.92
2019-04-07T02:57:51.280Z,5.72
2019-04-07T03:00:37.990Z,5.45
2019-04-07T03:03:08.975Z,5.15
2019-04-07T03:05:43.929Z,6.70
2019-04-07T03:08:29.037Z,4.62
2019-04-07T03:11:14.795Z,5.67
2019-04-07T03:13:54.973Z,7.17
2019-04-07T03:16:26.119Z,6.35
2019-04-07T03:18:54.852Z,7.85
2019-04-07T03:21:40.374Z,5.37
2019-04-07T03:24:24.573Z,5.45
2019-04-07T03:26:56.015Z,6.08
2019-04-07T03:29:33.393Z,5.37
2019-04-07T03:32:08.661Z,8.88
2019-04-07T03:34:48.810Z,6.45
2019-04-07T03:37:34.210Z,7.22
2019-04-07T03:39:58.963Z,5.80
2019-04-07T03:42:38.463Z,6.30
2019-04-07T03:45:08.247Z,5.22
2019-04-07T03:47:37.596Z,6.00
2019-04-07T03:50:07.217Z,5.72
2019-04-07T03:52:53.051Z,5.92
2019-04-07T03:55:28.270Z,7.72
2019-04-07T03:58:03.625Z,6.60
2019-04-07T04:01:17.698Z,7.00
2019-04-07T04:04:05.478Z,7.80
2019-04-07T04:06:51.500Z,6.25
2019-04-07T04:09:20.741Z,10.10
2019-04-07T04:11:58.388Z,7.58
2019-04-07T04:14:26.774Z,9.33
2019-04-07T04:16:54.237Z,7.50
2019-04-07T04:19:22.653Z,7.85
2019-04-07T04:21:49.209Z,7.65
2019-04-07T04:24:16.631Z,9.08
2019-04-07T04:26:44.095Z,8.38
2019-04-07T04:29:10.609Z,8.30
2019-04-07T04:31:37.123Z,12.60
2019-04-07T04:34:03.767Z,9.78
2019-04-07T04:36:30.207Z,8.80
2019-04-07T04:38:56.643Z,8.28
2019-04-07T04:41:23.320Z,8.63
2019-04-07T04:43:50.100Z,10.65
2019-04-07T04:46:17.041Z,8.78
2019-04-07T04:48:43.579Z,10.13
2019-04-07T04:51:13.024Z,7.72
2019-04-07T04:53:39.705Z,8.00
2019-04-07T04:56:06.140Z,9.48
2019-04-07T04:58:32.545Z,9.23
2019-04-07T05:00:59.005Z,9.68
2019-04-07T05:03:26.013Z,7.03
2019-04-07T05:05:52.560Z,6.12
2019-04-07T05:08:20.474Z,6.58
2019-04-07T05:10:47.380Z,6.35
2019-04-07T05:13:14.061Z,9.65
2019-04-07T05:15:40.578Z,7.03
2019-04-07T05:18:07.095Z,8.13
2019-04-07T05:20:34.377Z,8.60
2019-04-07T05:23:01.015Z,14.65
2019-04-07T05:25:27.460Z,9.23
2019-04-07T05:27:54.537Z,10.53
2019-04-07T05:30:21.124Z,11.40
2019-04-07T05:32:47.850Z,14.15
2019-04-07T05:35:14.427Z,18.67
2019-04-07T05:37:40.806Z,12.37
2019-04-07T05:40:07.174Z,11.97
2019-04-07T05:42:34.260Z,11.35
2019-04-07T05:45:00.778Z,8.43
2019-04-07T05:47:27.632Z,12.85
2019-04-07T05:49:57.324Z,9.75
2019-04-07T05:52:22.786Z,11.45
2019-04-07T05:54:50.015Z,9.68
2019-04-07T05:57:18.616Z,11.45
2019-04-07T05:59:45.158Z,12.93
2019-04-07T06:02:12.092Z,10.55
2019-04-07T06:04:39.271Z,8.93
2019-04-07T06:07:05.927Z,11.50
2019-04-07T06:09:33.817Z,7.97
2019-04-07T06:12:01.062Z,7.03
2019-04-07T06:14:28.656Z,9.60
2019-04-07T06:16:55.726Z,7.45
2019-04-07T06:19:22.476Z,8.25
2019-04-07T06:21:49.710Z,8.53
2019-04-07T06:24:16.911Z,7.83
2019-04-07T06:26:48.876Z,6.78
2019-04-07T06:29:11.859Z,6.95
2019-04-07T06:31:38.237Z,7.78
2019-04-07T06:34:08.678Z,8.58
2019-04-07T06:36:33.094Z,6.85
2019-04-07T06:39:00.101Z,7.55
2019-04-07T06:41:30.084Z,6.60
2019-04-07T06:44:08.230Z,6.47
2019-04-07T06:46:37.939Z,6.35
2019-04-07T06:49:15.170Z,8.28
2019-04-07T06:51:50.082Z,8.83
2019-04-07T06:54:22.207Z,7.37
2019-04-07T06:57:07.581Z,7.53
2019-04-07T06:59:52.790Z,8.55
2019-04-07T07:02:29.529Z,11.25
2019-04-07T07:05:13.707Z,7.40
2019-04-07T07:07:49.719Z,8.05
2019-04-07T07:10:37.739Z,12.13
2019-04-07T07:13:28.451Z,6.97
2019-04-07T07:16:09.602Z,7.08
2019-04-07T07:18:44.955Z,7.67
2019-04-07T07:21:19.134Z,10.20
2019-04-07T07:23:48.922Z,12.55
2019-04-07T07:26:13.879Z,7.58
2019-04-07T07:28:42.898Z,6.62
2019-04-07T07:31:08.872Z,7.22
2019-04-07T07:33:38.387Z,6.00
2019-04-07T07:36:04.309Z,6.28
2019-04-07T07:38:32.472Z,6.47
2019-04-07T07:41:01.536Z,5.60
2019-04-07T07:43:29.283Z,6.92
2019-04-07T07:45:56.738Z,6.37
2019-04-07T07:48:26.213Z,6.75
2019-04-07T07:50:51.541Z,6.53
2019-04-07T07:53:19.183Z,6.03
2019-04-07T07:55:46.689Z,5.95
2019-04-07T07:58:13.894Z,5.92
2019-04-07T08:00:42.360Z,6.15
2019-04-07T08:03:08.699Z,10.82
2019-04-07T08:05:35.104Z,6.80
2019-04-07T08:08:01.783Z,8.75
2019-04-07T08:10:29.050Z,5.67
2019-04-07T08:12:56.269Z,5.72
2019-04-07T08:15:25.498Z,7.35
2019-04-07T08:17:52.057Z,5.78
2019-04-07T08:20:19.604Z,5.65
2019-04-07T08:22:47.047Z,7.53
2019-04-07T08:25:14.204Z,7.60
2019-04-07T08:28:02.154Z,5.90
2019-04-07T08:30:47.644Z,5.90
2019-04-07T08:33:33.217Z,7.45
2019-04-07T08:36:18.435Z,9.90
2019-04-07T08:39:06.055Z,6.90
2019-04-07T08:41:51.857Z,6.90
2019-04-07T08:44:37.274Z,6.67
2019-04-07T08:47:24.620Z,6.25
2019-04-07T08:49:51.444Z,5.87
2019-04-07T08:52:19.665Z,6.30
2019-04-07T08:54:50.333Z,6.45
2019-04-07T08:57:15.264Z,8.30
2019-04-07T08:59:42.986Z,6.55
2019-04-07T09:02:09.635Z,5.90
2019-04-07T09:04:36.637Z,6.40
2019-04-07T09:09:59.888Z,5.10
2019-04-07T09:12:28.917Z,5.72
2019-04-07T09:14:55.634Z,6.58
2019-04-07T09:17:37.405Z,6.33
2019-04-07T09:20:21.306Z,5.47
2019-04-07T09:23:09.136Z,6.15
2019-04-07T09:26:05.570Z,6.72
2019-04-07T09:28:55.457Z,7.55
2019-04-07T09:31:41.839Z,7.25
2019-04-07T09:37:32.295Z,6.80
2019-04-07T09:40:30.766Z,8.30
2019-04-07T09:43:18.684Z,9.40
2019-04-07T09:45:55.131Z,8.50
2019-04-07T09:48:32.118Z,9.23
2019-04-07T09:51:18.588Z,9.98
2019-04-07T09:53:50.390Z,10.53
2019-04-07T09:56:20.551Z,9.53
2019-04-07T09:58:57.885Z,9.75
2019-04-07T10:01:28.574Z,9.90
2019-04-07T10:03:59.565Z,9.73
2019-04-07T10:06:45.022Z,12.33
2019-04-07T10:09:19.593Z,11.57
2019-04-07T10:12:01.546Z,11.35
2019-04-07T10:14:47.072Z,13.00
2019-04-07T10:17:24.305Z,13.72
2019-04-07T10:20:02.340Z,14.80
2019-04-07T10:22:32.007Z,16.42
2019-04-07T10:25:12.374Z,17.73
2019-04-07T10:27:47.222Z,15.88
2019-04-07T10:30:21.260Z,15.78
2019-04-07T10:32:50.660Z,16.20
2019-04-07T10:35:34.900Z,18.70
2019-04-07T10:38:12.566Z,15.93
2019-04-07T10:40:41.202Z,18.23
2019-04-07T10:43:09.620Z,19.77
2019-04-07T10:45:43.915Z,18.90
2019-04-07T10:48:15.525Z,20.95
2019-04-07T10:50:59.131Z,19.92
2019-04-07T10:53:32.055Z,23.98
2019-04-07T10:56:01.113Z,22.02
2019-04-07T10:58:39.249Z,21.12
2019-04-07T11:01:11.143Z,20.72
2019-04-07T11:04:03.844Z,26.10
2019-04-07T11:06:40.645Z,29.25
2019-04-07T11:09:21.118Z,31.50
2019-04-07T11:12:06.642Z,26.37
2019-04-07T11:14:35.300Z,29.65
2019-04-07T11:17:16.201Z,29.37
2019-04-07T11:20:03.535Z,25.15
2019-04-07T11:22:48.926Z,23.98
2019-04-07T11:25:29.868Z,24.92
2019-04-07T11:28:07.244Z,24.77
2019-04-07T11:30:35.781Z,24.40
2019-04-07T11:33:05.196Z,23.05
2019-04-07T11:35:36.928Z,22.58
2019-04-07T11:38:14.884Z,22.52
2019-04-07T11:40:49.846Z,23.92
2019-04-07T11:43:17.208Z,19.85
2019-04-07T11:45:56.156Z,21.17
2019-04-07T11:48:18.651Z,22.30
2019-04-07T11:51:03.567Z,22.50
2019-04-07T11:53:39.426Z,24.10
2019-04-07T11:56:19.581Z,22.90
2019-04-07T11:59:06.878Z,23.55
2019-04-07T12:01:41.929Z,20.20
2019-04-07T12:04:16.256Z,20.62
2019-04-07T12:06:49.517Z,22.93
2019-04-07T12:09:35.933Z,23.57
2019-04-07T12:12:12.650Z,24.52
2019-04-07T12:15:02.901Z,24.65
2019-04-07T12:17:47.762Z,26.87
2019-04-07T12:20:16.329Z,25.68
2019-04-07T12:22:47.092Z,24.30
2019-04-07T12:25:33.882Z,23.60
2019-04-07T12:28:03.459Z,25.72
2019-04-07T12:30:42.595Z,26.23
2019-04-07T12:33:20.413Z,22.10
2019-04-07T12:39:00.743Z,24.15
2019-04-07T12:41:33.070Z,22.22
2019-04-07T12:44:19.107Z,28.62
2019-04-07T12:47:05.147Z,23.07
2019-04-07T12:49:39.180Z,24.82
2019-04-07T12:52:28.038Z,25.55
2019-04-07T12:55:04.873Z,24.57
2019-04-07T12:57:38.326Z,24.67
2019-04-07T13:00:24.766Z,23.45
2019-04-07T13:02:55.201Z,26.37
2019-04-07T13:05:30.407Z,25.95
2019-04-07T13:08:14.546Z,27.32
2019-04-07T13:11:04.743Z,26.42
2019-04-07T13:13:33.737Z,23.83
2019-04-07T13:16:02.310Z,23.27
2019-04-07T13:18:48.342Z,21.90
2019-04-07T13:21:35.897Z,19.90
2019-04-07T13:24:22.392Z,18.85
2019-04-07T13:26:44.582Z,20.12
2019-04-07T13:29:13.036Z,20.25
2019-04-07T13:31:49.157Z,20.35
2019-04-07T13:34:34.809Z,15.48
2019-04-07T13:37:15.638Z,18.27
2019-04-07T13:39:45.205Z,16.67
2019-04-07T13:42:33.640Z,15.98
2019-04-07T13:45:03.946Z,17.42
2019-04-07T13:47:32.961Z,15.85
2019-04-07T13:50:19.685Z,16.32
2019-04-07T13:53:06.717Z,15.10
2019-04-07T13:55:52.056Z,11.63
2019-04-07T13:58:20.781Z,16.05
2019-04-07T14:00:55.896Z,13.60
2019-04-07T14:03:25.238Z,13.30
2019-04-07T14:06:14.282Z,13.48
2019-04-07T14:08:43.824Z,13.18
2019-04-07T14:11:15.200Z,12.78
2019-04-07T14:13:46.754Z,13.35
2019-04-07T14:16:15.902Z,13.65
2019-04-07T14:18:54.508Z,14.45
2019-04-07T14:21:29.560Z,13.40
2019-04-07T14:23:58.361Z,12.98
2019-04-07T14:26:26.917Z,13.75
2019-04-07T14:28:55.404Z,15.58
2019-04-07T14:31:35.848Z,14.35
2019-04-07T14:34:23.020Z,14.87
2019-04-07T14:36:52.378Z,13.90
2019-04-07T14:39:21.630Z,14.85
2019-04-07T14:42:02.631Z,13.98
2019-04-07T14:44:41.222Z,17.23
2019-04-07T14:47:19.746Z,15.35
2019-04-07T14:49:52.122Z,14.47
2019-04-07T14:52:25.214Z,17.00
2019-04-07T14:55:00.280Z,18.65
2019-04-07T14:57:47.904Z,16.45
2019-04-07T15:00:25.560Z,16.10
2019-04-07T15:02:50.992Z,17.70
2019-04-07T15:05:28.807Z,16.67
2019-04-07T15:08:06.505Z,17.82
2019-04-07T15:10:41.917Z,22.32
2019-04-07T15:13:16.115Z,17.17
2019-04-07T15:16:04.246Z,20.15
2019-04-07T15:18:30.619Z,19.52
2019-04-07T15:20:57.333Z,19.52
2019-04-07T15:23:25.025Z,17.70
2019-04-07T15:25:51.624Z,18.92
2019-04-07T15:28:18.343Z,19.15
2019-04-07T15:30:48.000Z,18.40
2019-04-07T15:33:13.655Z,18.50
2019-04-07T15:35:42.609Z,19.30
2019-04-07T15:38:08.808Z,18.20
2019-04-07T15:40:36.623Z,18.50
2019-04-07T15:43:06.000Z,19.42
2019-04-07T15:45:31.575Z,19.27
2019-04-07T15:48:00.523Z,18.73
2019-04-07T15:50:29.296Z,18.80
2019-04-07T15:52:55.291Z,18.02
2019-04-07T15:55:23.910Z,19.65
2019-04-07T15:57:54.299Z,18.20
2019-04-07T16:00:18.771Z,21.20
2019-04-07T16:02:46.145Z,19.27
2019-04-07T16:05:13.639Z,19.60
2019-04-07T16:07:40.690Z,20.80
2019-04-07T16:10:07.935Z,18.12
2019-04-07T16:12:42.870Z,19.40
2019-04-07T16:15:04.352Z,19.15
2019-04-07T16:17:33.896Z,18.10
2019-04-07T16:19:59.391Z,18.32
2019-04-07T16:22:25.831Z,20.02
2019-04-07T16:24:55.102Z,17.92
2019-04-07T16:27:20.666Z,17.25
2019-04-07T16:29:47.888Z,17.30
2019-04-07T16:32:33.827Z,18.12
2019-04-07T16:35:00.607Z,20.72
2019-04-07T16:37:29.147Z,18.20
2019-04-07T16:39:55.451Z,20.95
2019-04-07T16:42:21.818Z,18.82
2019-04-07T16:44:48.379Z,17.40
2019-04-07T16:47:21.018Z,15.93
2019-04-07T16:49:46.624Z,15.55
2019-04-07T16:52:12.330Z,16.67
2019-04-07T16:54:41.663Z,16.23
2019-04-07T16:57:07.479Z,21.87
2019-04-07T16:59:34.922Z,17.62
2019-04-07T17:02:01.384Z,19.48
2019-04-07T17:04:30.017Z,16.37
2019-04-07T17:07:03.269Z,17.20
2019-04-07T17:09:43.526Z,17.60
2019-04-07T17:12:29.111Z,17.65
2019-04-07T17:15:14.233Z,16.40
2019-04-07T17:18:00.171Z,17.27
2019-04-07T17:20:45.130Z,19.52
2019-04-07T17:23:30.097Z,16.05
2019-04-07T17:26:15.173Z,18.30
2019-04-07T17:29:01.188Z,18.48
2019-04-07T17:31:46.695Z,16.77
2019-04-07T17:34:24.013Z,18.67
2019-04-07T17:36:55.840Z,17.80
2019-04-07T17:39:22.719Z,21.37
2019-04-07T17:41:50.776Z,18.40
2019-04-07T17:44:23.019Z,17.90
2019-04-07T17:46:50.222Z,20.02
2019-04-07T17:49:30.895Z,18.65
2019-04-07T17:52:13.145Z,17.80
2019-04-07T17:54:58.852Z,16.73
2019-04-07T17:57:27.244Z,18.57
2019-04-07T17:59:55.728Z,20.85
2019-04-07T18:02:29.781Z,18.95
2019-04-07T18:04:57.109Z,20.70
2019-04-07T18:07:28.630Z,18.32
2019-04-07T18:10:08.965Z,18.37
2019-04-07T18:12:50.311Z,23.57
2019-04-07T18:15:38.038Z,19.07
2019-04-07T18:18:25.943Z,23.80
2019-04-07T18:21:00.691Z,19.17
2019-04-07T18:23:37.142Z,20.10
2019-04-07T18:26:23.462Z,18.70
2019-04-07T18:29:31.004Z,22.80
2019-04-07T18:32:20.807Z,19.50
2019-04-07T18:35:11.168Z,18.27
2019-04-07T18:38:09.418Z,21.45
2019-04-07T18:41:10.737Z,19.23
2019-04-07T18:44:03.637Z,19.50
2019-04-07T18:46:52.759Z,19.17
2019-04-07T18:49:46.508Z,19.77
2019-04-07T18:52:54.485Z,19.73
2019-04-07T18:55:57.910Z,27.48
2019-04-07T18:58:52.578Z,20.70
2019-04-07T19:01:56.769Z,23.70
2019-04-07T19:05:02.173Z,20.88
2019-04-07T19:07:51.720Z,21.93
2019-04-07T19:11:08.200Z,21.02
2019-04-07T19:14:20.439Z,24.70
2019-04-07T19:17:02.942Z,20.17
2019-04-07T19:20:05.294Z,22.10
2019-04-07T19:22:58.120Z,22.42
2019-04-07T19:25:35.678Z,27.05
2019-04-07T19:28:19.147Z,20.75
2019-04-07T19:31:06.655Z,24.25
2019-04-07T19:33:44.521Z,22.07
2019-04-07T19:36:16.392Z,23.35
2019-04-07T19:38:43.351Z,22.17
2019-04-07T19:41:18.747Z,24.30
2019-04-07T19:43:52.807Z,23.90
2019-04-07T19:46:37.343Z,22.98
2019-04-07T19:49:23.349Z,26.50
2019-04-07T19:51:59.440Z,24.07
2019-04-07T19:54:35.640Z,20.70
2019-04-07T19:57:16.178Z,23.73
2019-04-07T20:00:02.784Z,27.90
2019-04-07T20:02:37.854Z,27.00
2019-04-07T20:05:12.222Z,23.83
2019-04-07T20:07:41.880Z,30.02
2019-04-07T20:13:07.895Z,25.97
2019-04-07T20:15:45.440Z,22.80
2019-04-07T20:18:14.609Z,26.17
2019-04-07T20:21:00.810Z,25.92
2019-04-07T20:23:31.873Z,30.17
2019-04-07T20:25:59.478Z,29.10
2019-04-07T20:28:32.836Z,22.98
2019-04-07T20:31:02.959Z,27.02
2019-04-07T20:33:33.246Z,24.20
2019-04-07T20:36:02.297Z,22.05
2019-04-07T20:38:42.160Z,30.77
2019-04-07T20:41:13.610Z,26.65
2019-04-07T20:43:46.859Z,24.85
2019-04-07T20:46:23.839Z,24.05
2019-04-07T20:48:58.148Z,25.48
2019-04-07T20:51:29.660Z,25.80
2019-04-07T20:54:07.671Z,24.82
2019-04-07T20:56:44.324Z,21.45
2019-04-07T20:59:15.969Z,21.82
2019-04-07T21:02:05.892Z,23.60
2019-04-07T21:04:51.364Z,21.33
2019-04-07T21:07:35.498Z,21.33
2019-04-07T21:10:10.007Z,20.88
2019-04-07T21:12:44.789Z,21.57
2019-04-07T21:15:25.508Z,22.20
2019-04-07T21:18:04.350Z,20.30
2019-04-07T21:20:36.732Z,22.52
2019-04-07T21:23:05.742Z,21.73
2019-04-07T21:25:52.085Z,23.40
2019-04-07T21:28:21.702Z,25.80
2019-04-07T21:30:56.572Z,22.82
2019-04-07T21:33:34.579Z,24.37
2019-04-07T21:36:14.816Z,26.23
2019-04-07T21:38:45.974Z,24.32
2019-04-07T21:41:31.061Z,26.82
2019-04-07T21:44:02.489Z,26.80
2019-04-07T21:49:32.757Z,26.40
2019-04-07T21:51:59.273Z,26.37
2019-04-07T21:54:28.109Z,25.52
2019-04-07T21:56:56.562Z,25.77
2019-04-07T21:59:28.595Z,26.57
2019-04-07T22:01:55.181Z,29.55
2019-04-07T22:04:30.141Z,24.25
2019-04-07T22:07:01.662Z,25.30
2019-04-07T22:09:30.325Z,26.82
2019-04-07T22:11:56.823Z,27.32
2019-04-07T22:14:23.252Z,26.35
2019-04-07T22:16:49.737Z,26.10
2019-04-07T22:19:17.632Z,24.82
2019-04-07T22:21:44.502Z,24.50
2019-04-07T22:24:11.151Z,24.43
2019-04-07T22:26:37.653Z,25.23
2019-04-07T22:29:05.436Z,24.82
2019-04-07T22:31:34.179Z,22.95
2019-04-07T22:34:02.345Z,25.60
2019-04-07T22:36:29.426Z,23.12
2019-04-07T22:38:58.736Z,23.12
2019-04-07T22:41:25.037Z,24.50
2019-04-07T22:43:52.864Z,21.15
2019-04-07T22:46:23.649Z,23.90
2019-04-07T22:48:48.043Z,21.25
2019-04-07T22:51:14.927Z,24.12
2019-04-07T22:53:43.318Z,23.05
2019-04-07T22:56:09.853Z,21.75
2019-04-07T22:58:36.374Z,25.97
2019-04-07T23:01:02.902Z,21.37
2019-04-07T23:03:29.380Z,20.30
2019-04-07T23:05:55.953Z,21.48
2019-04-07T23:08:22.529Z,20.57
2019-04-07T23:10:49.578Z,19.87
2019-04-07T23:13:16.233Z,18.52
2019-04-07T23:15:45.906Z,20.08
2019-04-07T23:18:11.619Z,16.97
2019-04-07T23:20:38.185Z,20.35
2019-04-07T23:23:04.746Z,19.80
2019-04-07T23:25:32.196Z,18.90
2019-04-07T23:27:58.800Z,22.52
2019-04-07T23:30:27.813Z,18.57
2019-04-07T23:32:54.311Z,20.10
2019-04-07T23:35:20.706Z,19.23
2019-04-07T23:37:47.116Z,18.30
2019-04-07T23:40:14.080Z,18.00
2019-04-07T23:42:40.585Z,17.02
2019-04-07T23:45:06.966Z,17.20
2019-04-07T23:47:33.479Z,19.87
2019-04-07T23:50:00.757Z,19.98
2019-04-07T23:52:27.234Z,19.23
2019-04-07T23:54:54.527Z,21.10
2019-04-07T23:57:21.854Z,19.60
2019-04-07T23:59:48.601Z,20.55
